sensor_id;sensor_type;location;lat;lon;timestamp;pressure;altitude;pressure_sealevel;temperature;humidity
22311;BME280;11323;49.610;11.016;2023-04-02T00:00:27;97228.06;;;15.12;69.03
22311;BME280;11323;49.610;11.016;2023-04-02T00:05:46;97246.69;;;15.17;68.83
22311;BME280;11323;49.610;11.016;2023-04-02T00:10:59;97253.56;;;15.18;68.78
22311;BME280;11323;49.610;11.016;2023-04-02T00:16:03;97250.91;;;15.11;68.86
22311;BME280;11323;49.610;11.016;2023-04-02T00:21:15;97254.72;;;15.16;68.86
22311;BME280;11323;49.610;11.016;2023-04-02T00:26:32;97259.56;;;15.12;68.96
22311;BME280;11323;49.610;11.016;2023-04-02T00:31:37;97264.81;;;15.12;68.73
22311;BME280;11323;49.610;11.016;2023-04-02T00:36:39;97270.06;;;15.12;69.00
22311;BME280;11323;49.610;11.016;2023-04-02T00:41:43;97278.56;;;15.14;68.91
22311;BME280;11323;49.610;11.016;2023-04-02T00:46:47;97279.56;;;15.13;68.90
22311;BME280;11323;49.610;11.016;2023-04-02T00:51:56;97280.56;;;15.12;69.08
22311;BME280;11323;49.610;11.016;2023-04-02T00:56:58;97272.91;;;15.10;69.10
22311;BME280;11323;49.610;11.016;2023-04-02T01:02:20;97286.19;;;15.09;68.99
22311;BME280;11323;49.610;11.016;2023-04-02T01:18:37;97295.47;;;15.05;69.22
22311;BME280;11323;49.610;11.016;2023-04-02T01:23:52;97298.09;;;15.05;69.09
22311;BME280;11323;49.610;11.016;2023-04-02T01:29:06;97311.00;;;15.06;69.21
22311;BME280;11323;49.610;11.016;2023-04-02T01:34:12;97300.72;;;15.05;69.08
22311;BME280;11323;49.610;11.016;2023-04-02T01:45:02;97308.97;;;15.02;68.92
22311;BME280;11323;49.610;11.016;2023-04-02T01:55:24;97327.34;;;15.02;69.07
22311;BME280;11323;49.610;11.016;2023-04-02T02:00:26;97330.97;;;15.01;69.15
22311;BME280;11323;49.610;11.016;2023-04-02T02:05:30;97325.72;;;15.01;69.28
22311;BME280;11323;49.610;11.016;2023-04-02T02:10:35;97322.88;;;14.95;69.14
22311;BME280;11323;49.610;11.016;2023-04-02T02:15:39;97338.22;;;14.98;69.28
22311;BME280;11323;49.610;11.016;2023-04-02T02:20:40;97339.84;;;15.00;69.21
22311;BME280;11323;49.610;11.016;2023-04-02T02:25:41;97346.72;;;15.01;69.33
22311;BME280;11323;49.610;11.016;2023-04-02T02:30:45;97355.56;;;15.00;69.25
22311;BME280;11323;49.610;11.016;2023-04-02T02:46:51;97364.03;;;14.95;69.28
22311;BME280;11323;49.610;11.016;2023-04-02T02:57:07;97375.53;;;14.94;69.21
22311;BME280;11323;49.610;11.016;2023-04-02T03:02:09;97377.34;;;14.93;69.50
22311;BME280;11323;49.610;11.016;2023-04-02T03:07:11;97377.34;;;14.93;69.32
22311;BME280;11323;49.610;11.016;2023-04-02T03:12:38;97391.47;;;14.92;69.46
22311;BME280;11323;49.610;11.016;2023-04-02T03:17:54;97395.09;;;14.91;69.28
22311;BME280;11323;49.610;11.016;2023-04-02T03:28:23;97412.44;;;14.92;69.21
22311;BME280;11323;49.610;11.016;2023-04-02T03:33:50;97410.41;;;14.88;69.75
22311;BME280;11323;49.610;11.016;2023-04-02T03:44:04;97426.94;;;14.88;69.35
22311;BME280;11323;49.610;11.016;2023-04-02T03:49:18;97425.78;;;14.91;69.41
22311;BME280;11323;49.610;11.016;2023-04-02T03:54:22;97432.19;;;14.88;69.54
22311;BME280;11323;49.610;11.016;2023-04-02T03:59:34;97435.22;;;14.85;69.37
22311;BME280;11323;49.610;11.016;2023-04-02T04:04:39;97440.06;;;14.88;69.34
22311;BME280;11323;49.610;11.016;2023-04-02T04:09:44;97446.31;;;14.87;69.59
22311;BME280;11323;49.610;11.016;2023-04-02T04:15:01;97451.94;;;14.84;69.49
22311;BME280;11323;49.610;11.016;2023-04-02T04:20:40;97459.25;;;14.89;69.33
22311;BME280;11323;49.610;11.016;2023-04-02T04:25:34;97470.47;;;14.82;69.75
22311;BME280;11323;49.610;11.016;2023-04-02T04:30:51;97469.69;;;14.82;69.64
22311;BME280;11323;49.610;11.016;2023-04-02T04:36:01;97473.31;;;14.81;69.71
22311;BME280;11323;49.610;11.016;2023-04-02T04:41:15;97494.72;;;14.85;69.65
22311;BME280;11323;49.610;11.016;2023-04-02T04:46:26;97492.28;;;14.83;69.47
22311;BME280;11323;49.610;11.016;2023-04-02T04:51:36;97493.84;;;14.77;69.28
22311;BME280;11323;49.610;11.016;2023-04-02T04:56:44;97498.66;;;14.74;69.55
22311;BME280;11323;49.610;11.016;2023-04-02T05:01:51;97510.81;;;14.81;69.54
22311;BME280;11323;49.610;11.016;2023-04-02T05:07:15;97517.91;;;14.81;69.60
22311;BME280;11323;49.610;11.016;2023-04-02T05:12:58;97536.25;;;14.81;69.52
22311;BME280;11323;49.610;11.016;2023-04-02T05:18:39;97535.47;;;14.80;69.55
22311;BME280;11323;49.610;11.016;2023-04-02T05:23:47;97538.25;;;14.79;69.65
22311;BME280;11323;49.610;11.016;2023-04-02T05:33:56;97554.63;;;14.81;69.49
22311;BME280;11323;49.610;11.016;2023-04-02T05:38:58;97552.56;;;14.76;69.46
22311;BME280;11323;49.610;11.016;2023-04-02T05:44:25;97562.06;;;14.77;69.69
22311;BME280;11323;49.610;11.016;2023-04-02T05:49:33;97567.28;;;14.77;69.78
22311;BME280;11323;49.610;11.016;2023-04-02T05:54:48;97573.72;;;14.75;69.88
22311;BME280;11323;49.610;11.016;2023-04-02T05:59:57;97570.47;;;14.73;69.35
22311;BME280;11323;49.610;11.016;2023-04-02T06:05:03;97583.03;;;14.77;69.61
22311;BME280;11323;49.610;11.016;2023-04-02T06:15:20;97604.38;;;14.74;69.71
22311;BME280;11323;49.610;11.016;2023-04-02T06:20:24;97603.59;;;14.74;69.88
22311;BME280;11323;49.610;11.016;2023-04-02T06:25:30;97613.69;;;14.77;69.88
22311;BME280;11323;49.610;11.016;2023-04-02T06:30:37;97624.19;;;14.77;69.61
22311;BME280;11323;49.610;11.016;2023-04-02T06:35:40;97637.50;;;14.75;69.67
22311;BME280;11323;49.610;11.016;2023-04-02T06:41:00;97635.66;;;14.76;69.71
22311;BME280;11323;49.610;11.016;2023-04-02T06:46:35;97638.47;;;14.74;69.98
22311;BME280;11323;49.610;11.016;2023-04-02T06:51:44;97647.69;;;14.85;70.18
22311;BME280;11323;49.610;11.016;2023-04-02T06:56:49;97658.72;;;14.95;70.38
22311;BME280;11323;49.610;11.016;2023-04-02T07:02:00;97671.16;;;15.08;70.43
22311;BME280;11323;49.610;11.016;2023-04-02T07:07:04;97678.50;;;15.13;70.23
22311;BME280;11323;49.610;11.016;2023-04-02T07:12:13;97680.91;;;15.14;70.41
22311;BME280;11323;49.610;11.016;2023-04-02T07:17:19;97715.13;;;15.21;70.43
22311;BME280;11323;49.610;11.016;2023-04-02T07:22:21;97715.94;;;15.22;70.62
22311;BME280;11323;49.610;11.016;2023-04-02T07:27:26;97722.63;;;15.24;70.48
22311;BME280;11323;49.610;11.016;2023-04-02T07:32:27;97733.22;;;15.31;70.65
22311;BME280;11323;49.610;11.016;2023-04-02T07:37:27;97739.91;;;15.34;70.83
22311;BME280;11323;49.610;11.016;2023-04-02T07:42:28;97738.19;;;15.26;70.56
22311;BME280;11323;49.610;11.016;2023-04-02T07:47:29;97752.59;;;15.30;70.71
22311;BME280;11323;49.610;11.016;2023-04-02T07:52:48;97766.53;;;15.31;70.37
22311;BME280;11323;49.610;11.016;2023-04-02T07:57:52;97780.28;;;15.33;70.33
22311;BME280;11323;49.610;11.016;2023-04-02T08:02:53;97796.03;;;15.33;70.44
22311;BME280;11323;49.610;11.016;2023-04-02T08:07:54;97803.31;;;15.31;70.30
22311;BME280;11323;49.610;11.016;2023-04-02T08:12:55;97819.84;;;15.31;70.27
22311;BME280;11323;49.610;11.016;2023-04-02T08:17:56;97813.31;;;15.27;70.35
22311;BME280;11323;49.610;11.016;2023-04-02T08:22:56;97830.56;;;15.29;70.06
22311;BME280;11323;49.610;11.016;2023-04-02T08:27:57;97843.28;;;15.33;70.02
22311;BME280;11323;49.610;11.016;2023-04-02T08:32:57;97847.28;;;15.28;69.72
22311;BME280;11323;49.610;11.016;2023-04-02T08:37:58;97860.69;;;15.34;69.97
22311;BME280;11323;49.610;11.016;2023-04-02T08:48:21;97884.38;;;15.55;71.09
22311;BME280;11323;49.610;11.016;2023-04-02T08:53:24;97883.38;;;15.56;71.61
22311;BME280;11323;49.610;11.016;2023-04-02T08:58:39;97898.06;;;15.66;71.77
22311;BME280;11323;49.610;11.016;2023-04-02T09:03:45;97907.56;;;15.67;71.88
22311;BME280;11323;49.610;11.016;2023-04-02T09:08:47;97919.78;;;15.74;72.31
22311;BME280;11323;49.610;11.016;2023-04-02T09:13:54;97925.97;;;15.82;71.86
22311;BME280;11323;49.610;11.016;2023-04-02T09:18:55;97936.94;;;15.85;71.90
22311;BME280;11323;49.610;11.016;2023-04-02T09:23:56;97948.91;;;15.88;71.92
22311;BME280;11323;49.610;11.016;2023-04-02T09:39:27;97974.63;;;15.93;71.73
22311;BME280;11323;49.610;11.016;2023-04-02T09:44:27;97981.31;;;15.95;71.92
22311;BME280;11323;49.610;11.016;2023-04-02T09:49:34;97988.22;;;15.96;71.65
22311;BME280;11323;49.610;11.016;2023-04-02T09:54:38;98008.69;;;16.01;71.89
22311;BME280;11323;49.610;11.016;2023-04-02T09:59:40;98024.75;;;16.06;71.48
22311;BME280;11323;49.610;11.016;2023-04-02T10:04:45;98037.53;;;16.09;71.57
22311;BME280;11323;49.610;11.016;2023-04-02T10:09:56;98045.16;;;15.66;65.49
22311;BME280;11323;49.610;11.016;2023-04-02T10:15:02;98048.56;;;15.36;62.57
22311;BME280;11323;49.610;11.016;2023-04-02T10:20:18;98054.31;;;14.93;60.46
22311;BME280;11323;49.610;11.016;2023-04-02T10:25:23;98064.94;;;14.92;61.67
22311;BME280;11323;49.610;11.016;2023-04-02T10:30:47;98085.09;;;15.00;63.17
22311;BME280;11323;49.610;11.016;2023-04-02T10:36:08;98072.09;;;15.29;63.81
22311;BME280;11323;49.610;11.016;2023-04-02T10:51:43;98093.41;;;15.73;66.11
22311;BME280;11323;49.610;11.016;2023-04-02T10:56:45;98103.81;;;15.81;67.02
22311;BME280;11323;49.610;11.016;2023-04-02T11:01:47;98106.44;;;15.81;67.46
22311;BME280;11323;49.610;11.016;2023-04-02T11:06:52;98113.34;;;15.82;67.20
22311;BME280;11323;49.610;11.016;2023-04-02T11:11:57;98125.69;;;15.82;67.32
22311;BME280;11323;49.610;11.016;2023-04-02T11:17:00;98134.03;;;15.85;67.07
22311;BME280;11323;49.610;11.016;2023-04-02T11:22:21;98140.94;;;15.86;67.10
22311;BME280;11323;49.610;11.016;2023-04-02T11:27:34;98152.91;;;15.89;66.73
22311;BME280;11323;49.610;11.016;2023-04-02T11:32:37;98149.47;;;15.80;66.92
22311;BME280;11323;49.610;11.016;2023-04-02T11:42:44;98164.75;;;15.85;67.03
22311;BME280;11323;49.610;11.016;2023-04-02T11:53:18;98183.38;;;15.98;67.80
22311;BME280;11323;49.610;11.016;2023-04-02T11:58:44;98195.97;;;16.03;68.35
22311;BME280;11323;49.610;11.016;2023-04-02T12:04:09;98197.06;;;16.09;68.97
22311;BME280;11323;49.610;11.016;2023-04-02T12:09:27;98218.75;;;16.11;68.74
22311;BME280;11323;49.610;11.016;2023-04-02T12:14:42;98222.81;;;16.13;69.12
22311;BME280;11323;49.610;11.016;2023-04-02T12:19:48;98226.91;;;16.16;69.55
22311;BME280;11323;49.610;11.016;2023-04-02T12:24:52;98230.28;;;16.25;69.06
22311;BME280;11323;49.610;11.016;2023-04-02T12:30:17;98238.53;;;16.21;68.35
22311;BME280;11323;49.610;11.016;2023-04-02T12:35:27;98229.38;;;16.17;68.25
22311;BME280;11323;49.610;11.016;2023-04-02T12:40:28;98244.81;;;16.20;68.20
22311;BME280;11323;49.610;11.016;2023-04-02T12:45:30;98250.41;;;16.17;67.79
22311;BME280;11323;49.610;11.016;2023-04-02T12:50:33;98243.84;;;16.13;67.65
22311;BME280;11323;49.610;11.016;2023-04-02T12:55:34;98252.59;;;16.14;67.63
22311;BME280;11323;49.610;11.016;2023-04-02T13:00:35;98282.31;;;16.14;67.55
22311;BME280;11323;49.610;11.016;2023-04-02T13:05:55;98273.44;;;16.15;67.58
22311;BME280;11323;49.610;11.016;2023-04-02T13:10:58;98279.69;;;16.14;67.66
22311;BME280;11323;49.610;11.016;2023-04-02T13:26:22;98304.34;;;16.13;67.48
22311;BME280;11323;49.610;11.016;2023-04-02T13:31:23;98302.88;;;16.11;67.47
22311;BME280;11323;49.610;11.016;2023-04-02T13:36:25;98338.84;;;16.10;67.37
22311;BME280;11323;49.610;11.016;2023-04-02T13:41:30;98346.75;;;16.10;67.50
22311;BME280;11323;49.610;11.016;2023-04-02T13:46:32;98342.66;;;16.08;67.47
22311;BME280;11323;49.610;11.016;2023-04-02T13:51:40;98353.16;;;16.08;67.49
22311;BME280;11323;49.610;11.016;2023-04-02T13:56:43;98350.88;;;16.04;67.54
22311;BME280;11323;49.610;11.016;2023-04-02T14:01:46;98354.16;;;16.06;67.29
22311;BME280;11323;49.610;11.016;2023-04-02T14:07:13;98365.50;;;16.07;67.58
22311;BME280;11323;49.610;11.016;2023-04-02T14:12:36;98392.69;;;16.23;68.40
22311;BME280;11323;49.610;11.016;2023-04-02T14:33:23;98428.75;;;16.37;69.44
22311;BME280;11323;49.610;11.016;2023-04-02T14:43:53;98430.41;;;16.38;69.66
22311;BME280;11323;49.610;11.016;2023-04-02T14:49:23;98436.59;;;16.45;69.70
22311;BME280;11323;49.610;11.016;2023-04-02T14:59:38;98435.44;;;16.48;69.55
22311;BME280;11323;49.610;11.016;2023-04-02T15:04:51;98439.88;;;16.47;69.59
22311;BME280;11323;49.610;11.016;2023-04-02T15:10:06;98443.34;;;16.48;69.67
22311;BME280;11323;49.610;11.016;2023-04-02T15:15:23;98448.41;;;16.49;69.72
22311;BME280;11323;49.610;11.016;2023-04-02T15:20:47;98451.69;;;16.51;69.44
22311;BME280;11323;49.610;11.016;2023-04-02T15:31:24;98470.22;;;16.58;69.35
22311;BME280;11323;49.610;11.016;2023-04-02T15:41:55;98479.38;;;16.62;69.48
22311;BME280;11323;49.610;11.016;2023-04-02T15:47:09;98479.78;;;16.51;68.32
22311;BME280;11323;49.610;11.016;2023-04-02T15:52:35;98491.66;;;16.47;68.59
22311;BME280;11323;49.610;11.016;2023-04-02T16:03:26;98501.22;;;16.40;68.33
22311;BME280;11323;49.610;11.016;2023-04-02T16:08:52;98514.94;;;16.27;68.67
22311;BME280;11323;49.610;11.016;2023-04-02T16:14:03;98525.16;;;16.21;68.33
22311;BME280;11323;49.610;11.016;2023-04-02T16:24:24;98537.31;;;16.23;68.15
22311;BME280;11323;49.610;11.016;2023-04-02T16:29:40;98546.84;;;16.24;67.75
22311;BME280;11323;49.610;11.016;2023-04-02T16:35:25;98553.78;;;16.16;67.90
22311;BME280;11323;49.610;11.016;2023-04-02T16:40:52;98568.41;;;16.19;67.94
22311;BME280;11323;49.610;11.016;2023-04-02T16:46:36;98572.69;;;16.12;68.06
22311;BME280;11323;49.610;11.016;2023-04-02T16:57:12;98586.84;;;16.11;67.72
22311;BME280;11323;49.610;11.016;2023-04-02T17:08:03;98605.41;;;16.01;67.97
22311;BME280;11323;49.610;11.016;2023-04-02T17:13:14;98606.72;;;16.05;67.80
22311;BME280;11323;49.610;11.016;2023-04-02T17:18:19;98623.50;;;16.04;68.05
22311;BME280;11323;49.610;11.016;2023-04-02T17:23:24;98630.41;;;16.05;68.66
22311;BME280;11323;49.610;11.016;2023-04-02T17:28:30;98638.44;;;16.12;68.39
22311;BME280;11323;49.610;11.016;2023-04-02T17:33:36;98643.84;;;16.10;68.34
22311;BME280;11323;49.610;11.016;2023-04-02T17:55:08;98689.88;;;16.06;68.15
22311;BME280;11323;49.610;11.016;2023-04-02T18:00:31;98679.38;;;16.06;67.90
22311;BME280;11323;49.610;11.016;2023-04-02T18:05:44;98705.66;;;16.06;68.11
22311;BME280;11323;49.610;11.016;2023-04-02T18:11:03;98705.16;;;16.02;68.04
22311;BME280;11323;49.610;11.016;2023-04-02T18:16:15;98716.81;;;16.00;67.82
22311;BME280;11323;49.610;11.016;2023-04-02T18:43:16;98768.41;;;15.93;67.58
22311;BME280;11323;49.610;11.016;2023-04-02T18:49:01;98785.00;;;15.93;67.63
22311;BME280;11323;49.610;11.016;2023-04-02T19:04:34;98805.22;;;15.93;68.10
22311;BME280;11323;49.610;11.016;2023-04-02T19:09:42;98815.06;;;15.99;68.35
22311;BME280;11323;49.610;11.016;2023-04-02T19:14:46;98821.97;;;16.00;68.25
22311;BME280;11323;49.610;11.016;2023-04-02T19:25:48;98841.72;;;16.12;68.07
22311;BME280;11323;49.610;11.016;2023-04-02T19:31:11;98840.72;;;16.13;68.11
22311;BME280;11323;49.610;11.016;2023-04-02T19:36:30;98860.16;;;16.20;68.28
22311;BME280;11323;49.610;11.016;2023-04-02T19:41:50;98863.41;;;16.23;68.15
22311;BME280;11323;49.610;11.016;2023-04-02T19:46:52;98874.47;;;16.26;68.03
22311;BME280;11323;49.610;11.016;2023-04-02T19:51:52;98880.22;;;16.30;68.20
22311;BME280;11323;49.610;11.016;2023-04-02T19:56:53;98879.53;;;16.28;67.90
22311;BME280;11323;49.610;11.016;2023-04-02T20:01:53;98878.38;;;16.30;67.91
22311;BME280;11323;49.610;11.016;2023-04-02T20:06:54;98884.31;;;16.32;67.94
22311;BME280;11323;49.610;11.016;2023-04-02T20:11:54;98879.22;;;16.31;67.63
22311;BME280;11323;49.610;11.016;2023-04-02T20:16:54;98898.31;;;16.41;67.58
22311;BME280;11323;49.610;11.016;2023-04-02T20:21:55;98899.94;;;16.42;67.45
22311;BME280;11323;49.610;11.016;2023-04-02T20:26:56;98890.38;;;16.33;66.90
22311;BME280;11323;49.610;11.016;2023-04-02T20:31:56;98900.28;;;16.31;66.70
22311;BME280;11323;49.610;11.016;2023-04-02T20:36:57;98906.50;;;16.30;66.66
22311;BME280;11323;49.610;11.016;2023-04-02T20:41:57;98909.47;;;16.27;66.77
22311;BME280;11323;49.610;11.016;2023-04-02T20:47:01;98913.56;;;16.21;67.00
22311;BME280;11323;49.610;11.016;2023-04-02T20:52:02;98919.97;;;16.18;66.73
22311;BME280;11323;49.610;11.016;2023-04-02T20:57:03;98931.63;;;16.16;67.05
22311;BME280;11323;49.610;11.016;2023-04-02T21:02:04;98932.94;;;16.12;66.87
22311;BME280;11323;49.610;11.016;2023-04-02T21:07:04;98945.25;;;16.11;67.07
22311;BME280;11323;49.610;11.016;2023-04-02T21:12:05;98944.59;;;16.09;67.06
22311;BME280;11323;49.610;11.016;2023-04-02T21:17:06;98947.69;;;16.04;67.10
22311;BME280;11323;49.610;11.016;2023-04-02T21:22:07;98951.16;;;16.05;66.84
22311;BME280;11323;49.610;11.016;2023-04-02T21:27:07;98958.69;;;16.00;66.74
22311;BME280;11323;49.610;11.016;2023-04-02T21:32:07;98961.31;;;16.00;66.73
22311;BME280;11323;49.610;11.016;2023-04-02T21:37:08;98965.25;;;15.96;66.90
22311;BME280;11323;49.610;11.016;2023-04-02T21:42:08;98968.88;;;15.95;66.71
22311;BME280;11323;49.610;11.016;2023-04-02T21:47:10;98959.34;;;15.94;66.91
22311;BME280;11323;49.610;11.016;2023-04-02T21:52:10;98975.41;;;15.90;66.94
22311;BME280;11323;49.610;11.016;2023-04-02T21:57:11;98970.81;;;15.84;66.88
22311;BME280;11323;49.610;11.016;2023-04-02T22:02:11;98976.06;;;15.84;66.64
22311;BME280;11323;49.610;11.016;2023-04-02T22:07:11;98984.06;;;15.83;67.04
22311;BME280;11323;49.610;11.016;2023-04-02T22:12:12;98993.91;;;15.81;66.98
22311;BME280;11323;49.610;11.016;2023-04-02T22:17:12;98988.81;;;15.79;67.55
22311;BME280;11323;49.610;11.016;2023-04-02T22:22:13;98996.00;;;15.77;67.20
22311;BME280;11323;49.610;11.016;2023-04-02T22:27:13;99005.22;;;15.73;67.38
22311;BME280;11323;49.610;11.016;2023-04-02T22:32:13;98995.00;;;15.70;67.02
22311;BME280;11323;49.610;11.016;2023-04-02T22:37:14;98996.66;;;15.71;67.17
22311;BME280;11323;49.610;11.016;2023-04-02T22:42:14;98993.81;;;15.64;67.52
22311;BME280;11323;49.610;11.016;2023-04-02T22:47:15;99000.22;;;15.62;67.32
22311;BME280;11323;49.610;11.016;2023-04-02T22:52:16;98994.00;;;15.63;67.18
22311;BME280;11323;49.610;11.016;2023-04-02T22:57:16;99000.91;;;15.64;67.37
22311;BME280;11323;49.610;11.016;2023-04-02T23:02:17;99001.19;;;15.60;67.33
22311;BME280;11323;49.610;11.016;2023-04-02T23:07:18;98994.75;;;15.55;67.23
22311;BME280;11323;49.610;11.016;2023-04-02T23:12:18;99001.50;;;15.57;67.52
22311;BME280;11323;49.610;11.016;2023-04-02T23:17:19;99002.81;;;15.53;67.49
22311;BME280;11323;49.610;11.016;2023-04-02T23:22:19;99009.03;;;15.52;67.59
22311;BME280;11323;49.610;11.016;2023-04-02T23:27:21;99009.34;;;15.49;67.58
22311;BME280;11323;49.610;11.016;2023-04-02T23:32:21;99000.47;;;15.50;67.63
22311;BME280;11323;49.610;11.016;2023-04-02T23:37:22;98998.84;;;15.49;67.67
22311;BME280;11323;49.610;11.016;2023-04-02T23:42:22;98986.16;;;15.44;67.37
22311;BME280;11323;49.610;11.016;2023-04-02T23:47:22;98992.22;;;15.45;67.61
22311;BME280;11323;49.610;11.016;2023-04-02T23:52:23;98991.56;;;15.43;67.56
22311;BME280;11323;49.610;11.016;2023-04-02T23:57:23;98986.47;;;15.41;67.76
